createdAt,value
2019-02-09T00:02:22.171Z,6.07
2019-02-09T00:04:52.307Z,8.07
2019-02-09T00:07:22.452Z,7.78
2019-02-09T00:09:52.657Z,7.00
2019-02-09T00:12:22.910Z,8.55
2019-02-09T00:14:53.145Z,10.37
2019-02-09T00:17:23.365Z,5.87
2019-02-09T00:19:53.578Z,8.23
2019-02-09T00:22:23.809Z,8.03
2019-02-09T00:24:54.147Z,8.63
2019-02-09T00:27:24.525Z,8.07
2019-02-09T00:29:55.034Z,6.23
2019-02-09T00:32:25.287Z,8.03
2019-02-09T00:34:55.596Z,7.10
2019-02-09T00:37:25.971Z,6.90
2019-02-09T00:39:56.209Z,10.53
2019-02-09T00:42:26.463Z,9.83
2019-02-09T00:44:57.327Z,8.33
2019-02-09T00:47:27.576Z,7.50
2019-02-09T00:49:57.922Z,9.00
2019-02-09T00:52:28.167Z,6.83
2019-02-09T00:54:58.537Z,6.73
2019-02-09T00:57:28.770Z,8.60
2019-02-09T00:59:59.214Z,8.80
2019-02-09T01:02:29.430Z,8.10
2019-02-09T01:04:59.659Z,9.43
2019-02-09T01:07:30.015Z,6.70
2019-02-09T01:10:00.469Z,9.60
2019-02-09T01:12:30.707Z,6.43
2019-02-09T01:15:01.019Z,7.83
2019-02-09T01:17:31.370Z,8.23
2019-02-09T01:20:01.595Z,8.00
2019-02-09T01:22:32.068Z,7.17
2019-02-09T01:25:02.209Z,6.93
2019-02-09T01:27:32.743Z,8.20
2019-02-09T01:30:03.124Z,8.83
2019-02-09T01:32:33.485Z,7.80
2019-02-09T01:35:04.139Z,9.47
2019-02-09T01:37:34.602Z,10.37
2019-02-09T01:40:06.896Z,11.63
2019-02-09T01:42:37.274Z,9.43
2019-02-09T01:45:09.842Z,8.67
2019-02-09T01:47:40.306Z,10.53
2019-02-09T01:50:12.923Z,10.77
2019-02-09T01:52:43.245Z,8.17
2019-02-09T01:55:13.814Z,8.70
2019-02-09T01:57:44.377Z,7.37
2019-02-09T02:00:24.013Z,8.10
2019-02-09T02:02:54.505Z,11.03
2019-02-09T02:05:27.158Z,9.23
2019-02-09T02:07:57.710Z,10.90
2019-02-09T02:10:33.981Z,7.83
2019-02-09T02:13:05.704Z,9.27
2019-02-09T02:15:36.262Z,10.93
2019-02-09T02:18:08.268Z,10.07
2019-02-09T02:20:39.099Z,9.93
2019-02-09T02:23:18.619Z,9.37
2019-02-09T02:25:49.062Z,8.10
2019-02-09T02:28:19.602Z,9.80
2019-02-09T02:30:50.152Z,10.23
2019-02-09T02:33:20.674Z,7.25
2019-02-09T02:35:51.145Z,7.77
2019-02-09T02:38:21.704Z,5.05
2019-02-09T02:40:52.223Z,8.27
2019-02-09T02:43:22.688Z,7.03
2019-02-09T02:45:53.260Z,5.17
2019-02-09T02:48:24.002Z,7.47
2019-02-09T02:50:54.374Z,4.57
2019-02-09T02:53:24.866Z,9.30
2019-02-09T02:55:55.328Z,4.97
2019-02-09T02:58:27.795Z,6.50
2019-02-09T03:00:58.083Z,5.53
2019-02-09T03:03:28.649Z,8.03
2019-02-09T03:05:59.276Z,4.28
2019-02-09T03:08:29.654Z,7.03
2019-02-09T03:11:00.062Z,7.70
2019-02-09T03:13:30.526Z,6.70
2019-02-09T03:16:00.786Z,9.20
2019-02-09T03:18:31.368Z,11.28
2019-02-09T03:21:01.755Z,9.17
2019-02-09T03:23:32.285Z,11.50
2019-02-09T03:26:02.874Z,7.20
2019-02-09T03:28:33.326Z,8.33
2019-02-09T03:31:03.564Z,10.33
2019-02-09T03:33:33.884Z,10.43
2019-02-09T03:36:04.285Z,8.63
2019-02-09T03:38:34.556Z,6.90
2019-02-09T03:41:04.888Z,10.77
2019-02-09T03:43:35.050Z,12.17
2019-02-09T03:46:05.800Z,8.30
2019-02-09T03:48:36.145Z,10.13
2019-02-09T03:51:06.759Z,8.07
2019-02-09T03:53:37.166Z,10.23
2019-02-09T03:56:07.430Z,10.95
2019-02-09T03:58:37.677Z,10.97
2019-02-09T04:01:07.917Z,13.17
2019-02-09T04:03:38.170Z,11.43
2019-02-09T04:06:08.480Z,15.97
2019-02-09T04:08:38.742Z,10.13
2019-02-09T04:11:08.808Z,9.83
2019-02-09T04:13:39.097Z,12.07
2019-02-09T04:16:09.328Z,16.33
2019-02-09T04:18:39.674Z,11.13
2019-02-09T04:21:10.011Z,14.90
2019-02-09T04:23:40.215Z,12.83
2019-02-09T04:26:10.568Z,17.10
2019-02-09T04:28:40.865Z,15.90
2019-02-09T04:31:11.103Z,14.58
2019-02-09T04:33:41.324Z,15.40
2019-02-09T04:36:11.694Z,9.68
2019-02-09T04:38:41.979Z,8.90
2019-02-09T04:41:12.136Z,9.63
2019-02-09T04:43:42.366Z,18.63
2019-02-09T04:46:12.722Z,14.20
2019-02-09T04:48:43.027Z,9.90
2019-02-09T04:51:13.287Z,11.45
2019-02-09T04:53:43.490Z,12.73
2019-02-09T04:56:13.912Z,14.63
2019-02-09T04:58:44.071Z,13.23
2019-02-09T05:01:14.565Z,11.37
2019-02-09T05:03:44.841Z,10.00
2019-02-09T05:06:15.085Z,11.70
2019-02-09T05:08:45.330Z,11.53
2019-02-09T05:11:15.508Z,12.80
2019-02-09T05:13:45.782Z,10.07
2019-02-09T05:16:16.030Z,14.97
2019-02-09T05:18:46.201Z,12.10
2019-02-09T05:21:16.589Z,7.67
2019-02-09T05:23:49.165Z,9.87
2019-02-09T05:26:19.428Z,14.35
2019-02-09T05:28:49.491Z,12.53
2019-02-09T05:31:23.090Z,17.32
2019-02-09T05:33:51.803Z,16.40
2019-02-09T05:36:22.046Z,16.30
2019-02-09T05:38:52.549Z,14.90
2019-02-09T05:41:22.883Z,16.33
2019-02-09T05:43:53.300Z,18.90
2019-02-09T05:46:23.899Z,11.17
2019-02-09T05:48:54.445Z,13.47
2019-02-09T05:51:24.783Z,11.40
2019-02-09T05:53:55.277Z,9.70
2019-02-09T05:56:25.959Z,15.33
2019-02-09T05:58:56.542Z,8.07
2019-02-09T06:01:32.230Z,15.43
2019-02-09T06:03:59.219Z,10.20
2019-02-09T06:06:29.659Z,16.37
2019-02-09T06:09:00.189Z,19.37
2019-02-09T06:11:31.823Z,11.90
2019-02-09T06:14:02.305Z,18.03
2019-02-09T06:16:32.821Z,14.93
2019-02-09T06:19:03.217Z,9.93
2019-02-09T06:21:33.578Z,14.77
2019-02-09T06:24:04.036Z,11.63
2019-02-09T06:26:34.517Z,14.00
2019-02-09T06:29:05.056Z,16.30
2019-02-09T06:31:41.042Z,20.47
2019-02-09T06:34:07.745Z,15.13
2019-02-09T06:36:38.190Z,16.03
2019-02-09T06:39:09.911Z,13.23
2019-02-09T06:41:40.464Z,11.77
2019-02-09T06:44:11.094Z,13.87
2019-02-09T06:46:41.595Z,13.87
2019-02-09T06:49:12.034Z,10.10
2019-02-09T06:51:42.587Z,17.50
2019-02-09T06:54:13.294Z,17.90
2019-02-09T06:56:43.828Z,11.70
2019-02-09T06:59:14.389Z,12.70
2019-02-09T07:01:48.754Z,12.43
2019-02-09T07:04:16.760Z,13.27
2019-02-09T07:06:47.469Z,10.77
2019-02-09T07:09:24.627Z,14.57
2019-02-09T07:11:54.886Z,10.80
2019-02-09T07:14:25.095Z,15.23
2019-02-09T07:16:55.691Z,15.00
2019-02-09T07:19:26.160Z,14.37
2019-02-09T07:21:56.442Z,15.53
2019-02-09T07:24:26.827Z,14.33
2019-02-09T07:26:57.058Z,13.33
2019-02-09T07:29:27.372Z,12.63
2019-02-09T07:31:57.592Z,11.43
2019-02-09T07:34:27.823Z,14.60
2019-02-09T07:36:58.069Z,13.73
2019-02-09T07:39:28.308Z,11.23
2019-02-09T07:41:58.576Z,13.10
2019-02-09T07:44:28.764Z,22.00
2019-02-09T07:46:59.020Z,14.87
2019-02-09T07:49:29.251Z,19.80
2019-02-09T07:51:59.395Z,13.23
2019-02-09T07:54:29.650Z,15.37
2019-02-09T07:56:59.893Z,13.73
2019-02-09T07:59:30.219Z,15.07
2019-02-09T08:02:04.729Z,18.27
2019-02-09T08:04:32.277Z,18.43
2019-02-09T08:07:02.619Z,16.80
2019-02-09T08:09:32.964Z,18.17
2019-02-09T08:12:03.293Z,20.67
2019-02-09T08:14:33.637Z,16.60
2019-02-09T08:17:04.070Z,10.40
2019-02-09T08:19:35.235Z,11.43
2019-02-09T08:22:05.869Z,14.20
2019-02-09T08:24:36.095Z,18.33
2019-02-09T08:27:06.987Z,18.00
2019-02-09T08:29:37.173Z,16.20
2019-02-09T08:32:12.547Z,13.43
2019-02-09T08:34:39.530Z,19.57
2019-02-09T08:37:09.824Z,11.20
2019-02-09T08:39:40.260Z,22.37
2019-02-09T08:42:10.539Z,15.23
2019-02-09T08:44:40.765Z,15.83
2019-02-09T08:47:11.189Z,16.17
2019-02-09T08:49:41.791Z,10.83
2019-02-09T08:52:12.114Z,15.53
2019-02-09T08:54:42.540Z,15.90
2019-02-09T08:57:15.175Z,21.37
2019-02-09T08:59:45.605Z,18.33
2019-02-09T09:02:20.545Z,18.90
2019-02-09T09:04:47.894Z,15.63
2019-02-09T09:07:19.801Z,16.43
2019-02-09T09:09:50.102Z,13.70
2019-02-09T09:12:20.264Z,12.63
2019-02-09T09:14:50.525Z,18.67
2019-02-09T09:17:20.860Z,20.23
2019-02-09T09:19:51.205Z,21.30
2019-02-09T09:22:21.570Z,16.70
2019-02-09T09:24:51.908Z,12.90
2019-02-09T09:27:22.374Z,13.83
2019-02-09T09:29:52.896Z,15.33
2019-02-09T09:32:28.516Z,16.02
2019-02-09T09:34:55.308Z,21.07
2019-02-09T09:37:25.667Z,16.83
2019-02-09T09:39:55.895Z,16.87
2019-02-09T09:42:26.160Z,27.83
2019-02-09T09:44:56.461Z,20.37
2019-02-09T09:47:26.717Z,18.33
2019-02-09T09:49:56.974Z,19.80
2019-02-09T09:52:27.240Z,17.50
2019-02-09T09:54:57.484Z,19.67
2019-02-09T09:57:30.905Z,21.73
2019-02-09T10:00:01.548Z,17.77
2019-02-09T10:02:36.576Z,19.30
2019-02-09T10:05:04.113Z,18.80
2019-02-09T10:07:35.344Z,22.00
2019-02-09T10:10:09.858Z,19.03
2019-02-09T10:12:40.170Z,19.83
2019-02-09T10:15:12.874Z,26.67
2019-02-09T10:17:43.202Z,20.52
2019-02-09T10:20:16.656Z,20.15
2019-02-09T10:22:46.919Z,18.95
2019-02-09T10:25:17.392Z,23.97
2019-02-09T10:27:47.958Z,18.67
2019-02-09T10:30:24.412Z,15.88
2019-02-09T10:32:54.804Z,22.83
2019-02-09T10:35:25.263Z,23.90
2019-02-09T10:37:55.758Z,19.80
2019-02-09T10:40:29.188Z,14.30
2019-02-09T10:43:00.202Z,24.40
2019-02-09T10:45:33.057Z,16.97
2019-02-09T10:48:03.504Z,23.87
2019-02-09T10:50:40.567Z,19.17
2019-02-09T10:53:11.229Z,25.30
2019-02-09T10:55:41.612Z,14.60
2019-02-09T10:58:12.066Z,17.90
2019-02-09T11:00:53.859Z,13.60
2019-02-09T11:03:24.433Z,22.07
2019-02-09T11:05:54.903Z,18.37
2019-02-09T11:08:26.361Z,14.73
2019-02-09T11:10:57.974Z,15.17
2019-02-09T11:13:28.701Z,20.13
2019-02-09T11:15:59.651Z,16.27
2019-02-09T11:18:31.594Z,13.77
2019-02-09T11:21:06.173Z,17.57
2019-02-09T11:23:36.597Z,15.10
2019-02-09T11:26:07.560Z,21.27
2019-02-09T11:28:37.947Z,18.47
2019-02-09T11:31:08.750Z,12.03
2019-02-09T11:33:38.844Z,25.27
2019-02-09T11:36:09.096Z,21.10
2019-02-09T11:38:39.292Z,12.00
2019-02-09T11:41:09.639Z,22.57
2019-02-09T11:43:39.951Z,16.20
2019-02-09T11:46:10.167Z,14.50
2019-02-09T11:48:40.468Z,19.57
2019-02-09T11:51:10.705Z,16.73
2019-02-09T11:53:40.918Z,22.48
2019-02-09T11:56:11.170Z,17.92
2019-02-09T11:58:41.388Z,15.20
2019-02-09T12:01:11.622Z,15.65
2019-02-09T12:04:02.691Z,15.43
2019-02-09T12:06:34.079Z,16.10
2019-02-09T12:09:06.671Z,14.53
2019-02-09T12:11:37.102Z,12.67
2019-02-09T12:14:07.479Z,15.47
2019-02-09T12:16:37.903Z,12.33
2019-02-09T12:19:13.878Z,14.58
2019-02-09T12:21:47.271Z,12.67
2019-02-09T12:24:18.360Z,12.45
2019-02-09T12:26:48.737Z,15.53
2019-02-09T12:29:19.042Z,16.77
2019-02-09T12:31:49.420Z,16.13
2019-02-09T12:34:19.802Z,14.77
2019-02-09T12:36:50.050Z,12.33
2019-02-09T12:39:21.910Z,10.50
2019-02-09T12:41:52.181Z,17.07
2019-02-09T12:44:22.478Z,11.87
2019-02-09T12:46:52.657Z,17.53
2019-02-09T12:49:22.978Z,13.13
2019-02-09T12:51:53.311Z,14.43
2019-02-09T12:54:23.543Z,16.37
2019-02-09T12:56:54.027Z,12.07
2019-02-09T12:59:24.521Z,14.43
2019-02-09T13:01:54.785Z,16.57
2019-02-09T13:04:25.163Z,12.80
2019-02-09T13:06:55.486Z,15.80
2019-02-09T13:09:25.801Z,13.40
2019-02-09T13:11:56.181Z,19.53
2019-02-09T13:14:26.451Z,16.30
2019-02-09T13:16:56.672Z,11.85
2019-02-09T13:19:26.944Z,9.83
2019-02-09T13:21:57.153Z,9.23
2019-02-09T13:24:27.323Z,10.97
2019-02-09T13:26:57.533Z,20.73
2019-02-09T13:29:27.867Z,15.50
2019-02-09T13:31:59.617Z,15.73
2019-02-09T13:34:29.985Z,10.77
2019-02-09T13:37:00.272Z,15.60
2019-02-09T13:39:30.477Z,12.53
2019-02-09T13:42:00.821Z,14.43
2019-02-09T13:44:31.354Z,16.23
2019-02-09T13:47:01.649Z,15.30
2019-02-09T13:49:31.940Z,17.23
2019-02-09T13:52:02.189Z,9.90
2019-02-09T13:54:33.556Z,19.37
2019-02-09T13:57:05.437Z,16.47
2019-02-09T13:59:39.965Z,14.70
2019-02-09T14:02:10.188Z,16.27
2019-02-09T14:04:40.439Z,16.60
2019-02-09T14:07:10.712Z,15.93
2019-02-09T14:09:40.966Z,19.73
2019-02-09T14:12:11.339Z,13.45
2019-02-09T14:14:41.622Z,14.07
2019-02-09T14:17:11.977Z,18.57
2019-02-09T14:19:42.748Z,17.27
2019-02-09T14:22:12.961Z,19.10
2019-02-09T14:24:43.242Z,10.87
2019-02-09T14:27:13.561Z,18.20
2019-02-09T14:29:43.795Z,8.63
2019-02-09T14:32:13.966Z,16.53
2019-02-09T14:34:44.192Z,13.97
2019-02-09T14:37:14.445Z,18.35
2019-02-09T14:39:46.768Z,19.52
2019-02-09T14:42:19.016Z,21.55
2019-02-09T14:44:49.375Z,13.70
2019-02-09T14:47:19.751Z,15.57
2019-02-09T14:49:50.156Z,11.03
2019-02-09T14:52:22.162Z,18.30
2019-02-09T14:54:52.377Z,16.50
2019-02-09T14:57:22.692Z,20.37
2019-02-09T14:59:52.946Z,17.13
2019-02-09T15:02:23.226Z,18.23
2019-02-09T15:04:53.441Z,22.03
2019-02-09T15:07:23.767Z,15.98
2019-02-09T15:09:54.105Z,13.83
2019-02-09T15:12:24.263Z,15.98
2019-02-09T15:14:54.440Z,16.73
2019-02-09T15:17:24.795Z,17.23
2019-02-09T15:19:55.013Z,15.03
2019-02-09T15:22:25.266Z,18.00
2019-02-09T15:24:55.439Z,15.03
2019-02-09T15:28:01.365Z,16.50
2019-02-09T15:30:32.291Z,14.23
2019-02-09T15:33:02.650Z,15.17
2019-02-09T15:35:32.978Z,20.17
2019-02-09T15:38:03.239Z,14.17
2019-02-09T15:40:33.395Z,17.33
2019-02-09T15:43:03.769Z,17.57
2019-02-09T15:45:34.062Z,18.30
2019-02-09T15:48:04.429Z,11.20
2019-02-09T15:50:34.717Z,17.90
2019-02-09T15:53:05.219Z,15.63
2019-02-09T15:55:35.485Z,21.17
2019-02-09T15:58:07.538Z,14.80
2019-02-09T16:00:37.919Z,19.40
2019-02-09T16:03:08.187Z,16.27
2019-02-09T16:05:38.469Z,16.03
2019-02-09T16:08:08.899Z,15.33
2019-02-09T16:10:39.182Z,16.23
2019-02-09T16:13:09.412Z,16.13
2019-02-09T16:15:39.769Z,18.63
2019-02-09T16:18:10.060Z,16.33
2019-02-09T16:20:40.670Z,18.27
2019-02-09T16:23:10.904Z,18.17
2019-02-09T16:25:41.218Z,23.57
2019-02-09T16:28:11.585Z,20.92
2019-02-09T16:30:41.962Z,16.62
2019-02-09T16:33:12.207Z,20.30
2019-02-09T16:35:42.483Z,15.60
2019-02-09T16:38:12.791Z,15.58
2019-02-09T16:40:43.031Z,20.03
2019-02-09T16:43:13.841Z,18.27
2019-02-09T16:45:44.141Z,25.03
2019-02-09T16:48:14.387Z,13.50
2019-02-09T16:50:44.612Z,25.43
2019-02-09T16:53:14.864Z,16.90
2019-02-09T16:55:45.209Z,20.43
2019-02-09T16:58:15.514Z,23.20
2019-02-09T17:00:45.997Z,14.13
2019-02-09T17:03:16.193Z,15.63
2019-02-09T17:05:46.438Z,17.13
2019-02-09T17:08:16.790Z,13.75
2019-02-09T17:10:47.027Z,19.00
2019-02-09T17:13:17.558Z,11.47
2019-02-09T17:15:47.956Z,10.63
2019-02-09T17:18:18.191Z,13.67
2019-02-09T17:20:48.367Z,13.63
2019-02-09T17:23:20.462Z,12.30
2019-02-09T17:25:52.131Z,13.50
2019-02-09T17:28:22.699Z,13.13
2019-02-09T17:30:53.465Z,15.63
2019-02-09T17:33:24.054Z,15.70
2019-02-09T17:35:54.564Z,19.60
2019-02-09T17:38:25.134Z,18.37
2019-02-09T17:40:55.655Z,15.57
2019-02-09T17:43:26.262Z,16.73
2019-02-09T17:46:06.707Z,16.27
2019-02-09T17:48:41.934Z,13.07
2019-02-09T17:51:12.512Z,15.43
2019-02-09T17:56:22.161Z,15.03
2019-02-09T17:58:52.672Z,15.30
2019-02-09T18:01:23.285Z,10.68
2019-02-09T18:03:53.745Z,18.40
2019-02-09T18:06:24.501Z,14.28
2019-02-09T18:08:54.984Z,16.40
2019-02-09T18:11:25.562Z,24.53
2019-02-09T18:13:56.058Z,16.00
2019-02-09T18:16:26.680Z,14.73
2019-02-09T18:18:57.442Z,15.67
2019-02-09T18:21:28.651Z,25.67
2019-02-09T18:23:59.315Z,17.50
2019-02-09T18:26:29.775Z,19.30
2019-02-09T18:29:00.618Z,18.75
2019-02-09T18:31:31.228Z,21.33
2019-02-09T18:34:01.738Z,16.87
2019-02-09T18:36:32.365Z,14.23
2019-02-09T18:39:04.051Z,20.00
2019-02-09T18:41:34.466Z,18.13
2019-02-09T18:44:04.957Z,22.73
2019-02-09T18:46:35.495Z,20.73
2019-02-09T18:49:07.264Z,21.17
2019-02-09T18:51:37.966Z,19.97
2019-02-09T18:54:08.414Z,24.77
2019-02-09T18:56:38.875Z,13.20
2019-02-09T18:59:09.476Z,19.47
2019-02-09T19:01:40.043Z,20.37
2019-02-09T19:04:10.469Z,16.13
2019-02-09T19:06:41.008Z,18.42
2019-02-09T19:09:12.135Z,20.80
2019-02-09T19:11:42.536Z,11.50
2019-02-09T19:14:13.166Z,15.95
2019-02-09T19:16:43.713Z,14.80
2019-02-09T19:19:14.238Z,21.07
2019-02-09T19:21:46.520Z,18.10
2019-02-09T19:24:17.191Z,14.07
2019-02-09T19:26:47.841Z,17.90
2019-02-09T19:29:18.525Z,21.10
2019-02-09T19:31:49.217Z,14.53
2019-02-09T19:34:19.596Z,17.32
2019-02-09T19:36:49.751Z,11.95
2019-02-09T19:39:20.002Z,17.85
2019-02-09T19:41:50.245Z,19.47
2019-02-09T19:44:20.510Z,17.20
2019-02-09T19:46:50.789Z,14.37
2019-02-09T19:49:20.999Z,18.37
2019-02-09T19:51:51.272Z,17.30
2019-02-09T19:54:21.461Z,19.93
2019-02-09T19:56:51.680Z,14.07
2019-02-09T19:59:21.937Z,19.87
2019-02-09T20:01:52.210Z,20.67
2019-02-09T20:04:22.514Z,20.45
2019-02-09T20:06:52.919Z,16.87
2019-02-09T20:09:23.135Z,17.67
2019-02-09T20:11:53.400Z,16.97
2019-02-09T20:14:23.636Z,25.10
2019-02-09T20:16:53.733Z,16.37
2019-02-09T20:19:26.998Z,18.23
2019-02-09T20:21:57.155Z,13.93
2019-02-09T20:24:27.419Z,15.47
2019-02-09T20:26:57.684Z,19.70
2019-02-09T20:29:27.921Z,19.40
2019-02-09T20:32:01.599Z,19.33
2019-02-09T20:34:30.853Z,22.47
2019-02-09T20:37:01.326Z,22.53
2019-02-09T20:39:32.007Z,26.33
2019-02-09T20:42:02.624Z,20.20
2019-02-09T20:44:33.541Z,19.43
2019-02-09T20:47:03.965Z,22.70
2019-02-09T20:49:34.546Z,30.97
2019-02-09T20:52:05.108Z,22.07
2019-02-09T20:54:36.008Z,17.73
2019-02-09T20:57:07.029Z,27.40
2019-02-09T20:59:37.531Z,30.03
2019-02-09T21:02:08.307Z,22.40
2019-02-09T21:04:38.907Z,34.53
2019-02-09T21:07:09.571Z,25.30
2019-02-09T21:09:42.017Z,22.43
2019-02-09T21:12:12.680Z,23.27
2019-02-09T21:14:43.134Z,23.97
2019-02-09T21:17:13.975Z,22.00
2019-02-09T21:19:44.445Z,25.37
2019-02-09T21:22:15.047Z,24.57
2019-02-09T21:24:46.376Z,23.80
2019-02-09T21:27:17.147Z,24.98
2019-02-09T21:29:47.839Z,23.40
2019-02-09T21:32:18.392Z,25.10
2019-02-09T21:34:48.935Z,22.70
2019-02-09T21:37:19.633Z,17.97
2019-02-09T21:39:50.362Z,23.07
2019-02-09T21:42:20.901Z,27.80
2019-02-09T21:44:51.368Z,23.43
2019-02-09T21:47:21.863Z,23.40
2019-02-09T21:49:52.050Z,19.40
2019-02-09T21:52:22.351Z,24.60
2019-02-09T21:54:52.595Z,32.83
2019-02-09T21:57:22.909Z,24.98
2019-02-09T21:59:53.036Z,24.23
2019-02-09T22:02:23.375Z,30.57
2019-02-09T22:04:53.610Z,36.73
2019-02-09T22:07:23.912Z,25.80
2019-02-09T22:09:54.115Z,26.87
2019-02-09T22:12:24.506Z,25.37
2019-02-09T22:14:54.914Z,25.30
2019-02-09T22:17:25.374Z,24.93
2019-02-09T22:19:55.629Z,27.27
2019-02-09T22:22:25.885Z,30.97
2019-02-09T22:24:56.337Z,24.70
2019-02-09T22:27:26.590Z,28.17
2019-02-09T22:29:56.717Z,23.77
2019-02-09T22:32:26.962Z,24.97
2019-02-09T22:34:57.146Z,30.53
2019-02-09T22:37:27.445Z,17.90
2019-02-09T22:39:57.793Z,20.25
2019-02-09T22:42:28.373Z,21.40
2019-02-09T22:44:58.601Z,15.57
2019-02-09T22:47:28.805Z,24.43
2019-02-09T22:49:59.062Z,22.17
2019-02-09T22:52:29.197Z,26.50
2019-02-09T22:54:59.412Z,18.47
2019-02-09T22:57:29.782Z,24.30
2019-02-09T23:00:00.197Z,22.22
2019-02-09T23:02:30.412Z,25.53
2019-02-09T23:05:59.025Z,20.30
2019-02-09T23:08:29.254Z,26.33
2019-02-09T23:10:59.437Z,26.47
2019-02-09T23:13:29.770Z,19.47
2019-02-09T23:15:59.947Z,20.57
2019-02-09T23:18:30.187Z,25.33
2019-02-09T23:21:00.397Z,31.07
2019-02-09T23:23:31.098Z,15.33
2019-02-09T23:26:01.455Z,23.27
2019-02-09T23:28:31.701Z,23.10
2019-02-09T23:31:01.826Z,23.03
2019-02-09T23:33:32.027Z,25.17
2019-02-09T23:36:02.313Z,14.53
2019-02-09T23:38:32.589Z,13.90
2019-02-09T23:41:02.810Z,25.43
2019-02-09T23:43:32.971Z,18.53
2019-02-09T23:46:03.220Z,23.10
2019-02-09T23:48:33.345Z,17.53
2019-02-09T23:51:03.583Z,19.90
2019-02-09T23:53:33.750Z,20.43
2019-02-09T23:56:03.967Z,19.20
2019-02-09T23:58:34.162Z,20.20
